sensor_id;sensor_type;location;lat;lon;timestamp;P1;durP1;ratioP1;P2;durP2;ratioP2
65053;SDS011;51639;47.828;35.038;2023-10-19T00:09:22;10.40;;;4.40;;
65053;SDS011;51639;47.828;35.038;2023-10-19T00:24:24;6.50;;;4.00;;
65053;SDS011;51639;47.828;35.038;2023-10-19T00:39:26;7.73;;;4.30;;
65053;SDS011;51639;47.828;35.038;2023-10-19T00:54:32;12.00;;;5.23;;
65053;SDS011;51639;47.828;35.038;2023-10-19T01:09:55;10.27;;;4.20;;
65053;SDS011;51639;47.828;35.038;2023-10-19T01:25:02;8.80;;;4.93;;
65053;SDS011;51639;47.828;35.038;2023-10-19T01:40:09;11.50;;;4.73;;
65053;SDS011;51639;47.828;35.038;2023-10-19T01:55:16;7.63;;;3.87;;
65053;SDS011;51639;47.828;35.038;2023-10-19T02:10:22;8.83;;;4.27;;
65053;SDS011;51639;47.828;35.038;2023-10-19T02:25:24;11.57;;;4.37;;
65053;SDS011;51639;47.828;35.038;2023-10-19T02:40:29;9.97;;;4.20;;
65053;SDS011;51639;47.828;35.038;2023-10-19T02:55:33;9.07;;;4.37;;
65053;SDS011;51639;47.828;35.038;2023-10-19T03:10:35;7.97;;;4.47;;
65053;SDS011;51639;47.828;35.038;2023-10-19T03:25:46;6.83;;;4.30;;
65053;SDS011;51639;47.828;35.038;2023-10-19T03:41:17;7.90;;;4.47;;
65053;SDS011;51639;47.828;35.038;2023-10-19T03:56:22;10.40;;;4.70;;
65053;SDS011;51639;47.828;35.038;2023-10-19T04:11:25;13.77;;;5.77;;
65053;SDS011;51639;47.828;35.038;2023-10-19T04:26:34;11.73;;;5.77;;
65053;SDS011;51639;47.828;35.038;2023-10-19T04:41:39;11.00;;;5.00;;
65053;SDS011;51639;47.828;35.038;2023-10-19T04:56:42;10.87;;;6.17;;
65053;SDS011;51639;47.828;35.038;2023-10-19T05:11:44;11.10;;;5.57;;
65053;SDS011;51639;47.828;35.038;2023-10-19T05:26:48;9.03;;;4.70;;
65053;SDS011;51639;47.828;35.038;2023-10-19T05:41:50;7.60;;;4.77;;
65053;SDS011;51639;47.828;35.038;2023-10-19T05:56:52;7.47;;;4.20;;
65053;SDS011;51639;47.828;35.038;2023-10-19T06:11:55;7.37;;;4.33;;
65053;SDS011;51639;47.828;35.038;2023-10-19T06:26:57;7.93;;;4.20;;
65053;SDS011;51639;47.828;35.038;2023-10-19T06:42:00;7.73;;;4.10;;
65053;SDS011;51639;47.828;35.038;2023-10-19T06:57:02;5.23;;;3.03;;
65053;SDS011;51639;47.828;35.038;2023-10-19T07:12:07;7.95;;;4.30;;
65053;SDS011;51639;47.828;35.038;2023-10-19T07:27:11;8.00;;;2.92;;
65053;SDS011;51639;47.828;35.038;2023-10-19T07:42:37;6.50;;;2.90;;
65053;SDS011;51639;47.828;35.038;2023-10-19T07:57:39;4.22;;;2.90;;
65053;SDS011;51639;47.828;35.038;2023-10-19T08:12:44;4.85;;;2.92;;
65053;SDS011;51639;47.828;35.038;2023-10-19T08:27:49;9.35;;;3.47;;
65053;SDS011;51639;47.828;35.038;2023-10-19T08:42:52;4.20;;;2.93;;
65053;SDS011;51639;47.828;35.038;2023-10-19T08:57:55;2.83;;;1.83;;
65053;SDS011;51639;47.828;35.038;2023-10-19T09:13:03;2.70;;;1.60;;
65053;SDS011;51639;47.828;35.038;2023-10-19T09:28:09;7.47;;;1.85;;
65053;SDS011;51639;47.828;35.038;2023-10-19T09:43:15;3.67;;;1.58;;
65053;SDS011;51639;47.828;35.038;2023-10-19T09:58:25;5.53;;;2.30;;
65053;SDS011;51639;47.828;35.038;2023-10-19T10:28:39;7.25;;;1.90;;
65053;SDS011;51639;47.828;35.038;2023-10-19T10:43:55;1.55;;;1.10;;
65053;SDS011;51639;47.828;35.038;2023-10-19T10:58:59;3.15;;;1.60;;
65053;SDS011;51639;47.828;35.038;2023-10-19T11:14:08;6.63;;;1.92;;
65053;SDS011;51639;47.828;35.038;2023-10-19T11:29:16;4.00;;;1.98;;
65053;SDS011;51639;47.828;35.038;2023-10-19T11:44:18;2.60;;;1.88;;
65053;SDS011;51639;47.828;35.038;2023-10-19T11:59:21;8.97;;;1.50;;
65053;SDS011;51639;47.828;35.038;2023-10-19T12:14:23;2.42;;;1.48;;
65053;SDS011;51639;47.828;35.038;2023-10-19T12:29:25;2.65;;;1.23;;
65053;SDS011;51639;47.828;35.038;2023-10-19T12:44:27;5.20;;;1.50;;
65053;SDS011;51639;47.828;35.038;2023-10-19T13:15:47;4.22;;;1.70;;
65053;SDS011;51639;47.828;35.038;2023-10-19T13:30:50;2.80;;;1.52;;
65053;SDS011;51639;47.828;35.038;2023-10-19T14:00:57;2.77;;;1.37;;
65053;SDS011;51639;47.828;35.038;2023-10-19T14:16:27;2.40;;;1.70;;
65053;SDS011;51639;47.828;35.038;2023-10-19T14:31:29;2.97;;;2.07;;
65053;SDS011;51639;47.828;35.038;2023-10-19T14:46:31;6.23;;;2.03;;
65053;SDS011;51639;47.828;35.038;2023-10-19T15:01:34;5.63;;;1.93;;
65053;SDS011;51639;47.828;35.038;2023-10-19T15:16:37;4.07;;;2.13;;
65053;SDS011;51639;47.828;35.038;2023-10-19T15:31:39;3.10;;;2.23;;
65053;SDS011;51639;47.828;35.038;2023-10-19T15:46:52;3.30;;;1.93;;
65053;SDS011;51639;47.828;35.038;2023-10-19T16:01:55;4.07;;;2.37;;
65053;SDS011;51639;47.828;35.038;2023-10-19T16:16:59;9.00;;;3.70;;
65053;SDS011;51639;47.828;35.038;2023-10-19T16:32:02;4.77;;;2.67;;
65053;SDS011;51639;47.828;35.038;2023-10-19T16:47:05;4.57;;;2.77;;
65053;SDS011;51639;47.828;35.038;2023-10-19T17:02:07;8.80;;;2.93;;
65053;SDS011;51639;47.828;35.038;2023-10-19T17:17:11;7.27;;;2.83;;
65053;SDS011;51639;47.828;35.038;2023-10-19T17:32:14;5.70;;;2.90;;
65053;SDS011;51639;47.828;35.038;2023-10-19T17:47:16;4.23;;;2.77;;
65053;SDS011;51639;47.828;35.038;2023-10-19T18:02:19;4.83;;;3.27;;
65053;SDS011;51639;47.828;35.038;2023-10-19T18:17:22;6.00;;;3.43;;
65053;SDS011;51639;47.828;35.038;2023-10-19T18:32:32;7.13;;;3.20;;
65053;SDS011;51639;47.828;35.038;2023-10-19T18:47:34;10.30;;;3.53;;
65053;SDS011;51639;47.828;35.038;2023-10-19T19:02:37;8.13;;;3.80;;
65053;SDS011;51639;47.828;35.038;2023-10-19T19:17:40;6.40;;;3.00;;
65053;SDS011;51639;47.828;35.038;2023-10-19T19:32:44;6.20;;;2.90;;
65053;SDS011;51639;47.828;35.038;2023-10-19T19:47:46;6.90;;;2.23;;
65053;SDS011;51639;47.828;35.038;2023-10-19T20:02:49;4.10;;;2.57;;
65053;SDS011;51639;47.828;35.038;2023-10-19T20:17:51;4.30;;;2.67;;
65053;SDS011;51639;47.828;35.038;2023-10-19T20:32:53;4.10;;;2.77;;
65053;SDS011;51639;47.828;35.038;2023-10-19T20:47:57;4.30;;;2.80;;
65053;SDS011;51639;47.828;35.038;2023-10-19T21:02:59;4.13;;;2.73;;
65053;SDS011;51639;47.828;35.038;2023-10-19T21:18:02;4.37;;;2.37;;
65053;SDS011;51639;47.828;35.038;2023-10-19T21:33:04;5.00;;;2.47;;
65053;SDS011;51639;47.828;35.038;2023-10-19T21:48:07;5.10;;;2.30;;
65053;SDS011;51639;47.828;35.038;2023-10-19T22:03:09;5.50;;;2.20;;
65053;SDS011;51639;47.828;35.038;2023-10-19T22:18:13;3.63;;;2.10;;
65053;SDS011;51639;47.828;35.038;2023-10-19T22:33:15;4.17;;;2.40;;
65053;SDS011;51639;47.828;35.038;2023-10-19T22:48:18;3.27;;;2.30;;
65053;SDS011;51639;47.828;35.038;2023-10-19T23:03:20;4.53;;;2.93;;
65053;SDS011;51639;47.828;35.038;2023-10-19T23:18:22;11.37;;;4.00;;
65053;SDS011;51639;47.828;35.038;2023-10-19T23:33:24;7.90;;;3.83;;
65053;SDS011;51639;47.828;35.038;2023-10-19T23:48:26;4.97;;;3.30;;
